createdAt,value
2019-06-27T00:00:25.075Z,99.90
2019-06-27T00:02:53.804Z,99.90
2019-06-27T00:05:23.578Z,99.90
2019-06-27T00:07:52.259Z,99.90
2019-06-27T00:10:21.481Z,99.90
2019-06-27T00:12:50.168Z,99.90
2019-06-27T00:15:18.873Z,99.90
2019-06-27T00:17:47.568Z,99.90
2019-06-27T00:20:16.322Z,99.90
2019-06-27T00:22:45.093Z,99.90
2019-06-27T00:25:14.122Z,99.90
2019-06-27T00:27:42.808Z,99.90
2019-06-27T00:30:11.570Z,99.90
2019-06-27T00:32:40.690Z,99.90
2019-06-27T00:35:09.374Z,99.90
2019-06-27T00:37:38.058Z,99.90
2019-06-27T00:40:06.733Z,99.90
2019-06-27T00:42:35.421Z,99.90
2019-06-27T00:45:04.121Z,99.90
2019-06-27T00:47:32.830Z,99.90
2019-06-27T00:50:01.596Z,99.90
2019-06-27T00:52:30.693Z,99.90
2019-06-27T00:54:59.463Z,99.90
2019-06-27T00:57:28.154Z,99.90
2019-06-27T00:59:56.825Z,99.90
2019-06-27T01:02:25.523Z,99.90
2019-06-27T01:04:54.570Z,99.90
2019-06-27T01:07:23.263Z,99.90
2019-06-27T01:09:52.016Z,99.90
2019-06-27T01:12:20.969Z,99.90
2019-06-27T01:14:49.677Z,99.90
2019-06-27T01:17:18.385Z,99.90
2019-06-27T01:19:47.153Z,99.90
2019-06-27T01:22:15.848Z,99.90
2019-06-27T01:24:44.537Z,99.90
2019-06-27T01:27:28.882Z,99.90
2019-06-27T01:29:44.060Z,99.90
2019-06-27T01:32:13.089Z,99.90
2019-06-27T01:34:41.778Z,99.90
2019-06-27T01:39:45.046Z,99.90
2019-06-27T01:42:14.354Z,99.90
2019-06-27T01:44:53.659Z,99.90
2019-06-27T01:47:22.447Z,99.90
2019-06-27T01:49:51.199Z,99.90
2019-06-27T01:52:19.901Z,99.90
2019-06-27T01:54:48.606Z,99.90
2019-06-27T01:57:17.411Z,99.90
2019-06-27T01:59:46.106Z,99.90
2019-06-27T02:02:14.941Z,99.90
2019-06-27T02:04:43.750Z,99.90
2019-06-27T02:07:13.383Z,99.90
2019-06-27T02:09:42.138Z,99.90
2019-06-27T02:12:11.150Z,99.90
2019-06-27T02:14:39.887Z,99.90
2019-06-27T02:17:09.036Z,99.90
2019-06-27T02:19:37.918Z,99.90
2019-06-27T02:22:06.727Z,99.90
2019-06-27T02:24:35.826Z,99.90
2019-06-27T02:27:04.542Z,99.90
2019-06-27T02:29:33.248Z,99.90
2019-06-27T02:32:01.978Z,99.90
2019-06-27T02:34:31.170Z,99.90
2019-06-27T02:37:00.257Z,99.90
2019-06-27T02:39:28.958Z,99.90
2019-06-27T02:41:57.753Z,99.90
2019-06-27T02:44:26.629Z,99.90
2019-06-27T02:46:55.315Z,99.90
2019-06-27T02:49:24.014Z,99.90
2019-06-27T02:51:52.701Z,99.90
2019-06-27T02:54:21.523Z,99.90
2019-06-27T02:56:50.223Z,99.90
2019-06-27T02:59:19.558Z,99.90
2019-06-27T03:01:48.302Z,99.90
2019-06-27T03:04:17.291Z,99.90
2019-06-27T03:06:46.023Z,99.90
2019-06-27T03:09:14.798Z,99.90
2019-06-27T03:11:43.493Z,99.90
2019-06-27T03:14:12.200Z,99.90
2019-06-27T03:16:42.325Z,99.90
2019-06-27T03:19:11.033Z,99.90
2019-06-27T03:21:39.803Z,99.90
2019-06-27T03:24:08.618Z,99.90
2019-06-27T03:26:37.526Z,99.90
2019-06-27T03:29:06.383Z,99.90
2019-06-27T03:31:35.069Z,99.90
2019-06-27T03:34:03.815Z,99.90
2019-06-27T03:36:32.504Z,99.90
2019-06-27T03:39:01.267Z,99.90
2019-06-27T03:41:31.414Z,99.90
2019-06-27T03:44:00.088Z,99.90
2019-06-27T03:46:29.178Z,99.90
2019-06-27T03:48:57.921Z,99.90
2019-06-27T03:51:26.594Z,99.90
2019-06-27T03:53:55.282Z,99.90
2019-06-27T03:56:23.966Z,99.90
2019-06-27T03:59:10.725Z,99.90
2019-06-27T04:01:23.225Z,99.90
2019-06-27T04:03:52.001Z,99.90
2019-06-27T04:06:20.694Z,99.90
2019-06-27T04:08:49.417Z,99.90
2019-06-27T04:11:18.097Z,99.90
2019-06-27T04:13:46.811Z,99.90
2019-06-27T04:16:15.749Z,99.90
2019-06-27T04:18:44.766Z,99.90
2019-06-27T04:21:13.445Z,99.90
2019-06-27T04:23:42.241Z,99.90
2019-06-27T04:26:11.098Z,99.90
2019-06-27T04:28:39.773Z,99.90
2019-06-27T04:31:09.610Z,99.90
2019-06-27T04:33:38.347Z,99.90
2019-06-27T04:36:07.029Z,99.90
2019-06-27T04:38:35.710Z,99.90
2019-06-27T04:41:04.529Z,99.90
2019-06-27T04:43:33.213Z,99.90
2019-06-27T04:46:01.900Z,99.90
2019-06-27T04:48:30.585Z,99.90
2019-06-27T04:50:59.279Z,99.90
2019-06-27T04:53:28.286Z,99.90
2019-06-27T04:55:57.538Z,99.90
2019-06-27T04:58:26.274Z,99.90
2019-06-27T05:00:54.982Z,99.90
2019-06-27T05:03:25.744Z,99.90
2019-06-27T05:05:54.483Z,99.90
2019-06-27T05:08:23.163Z,99.90
2019-06-27T05:10:51.948Z,99.90
2019-06-27T05:13:20.736Z,99.90
2019-06-27T05:15:49.417Z,99.90
2019-06-27T05:18:18.115Z,99.90
2019-06-27T05:20:46.889Z,99.90
2019-06-27T05:23:15.567Z,99.90
2019-06-27T05:25:44.358Z,99.90
2019-06-27T05:28:13.109Z,99.90
2019-06-27T05:30:42.198Z,99.90
2019-06-27T05:33:10.876Z,99.90
2019-06-27T05:35:39.678Z,99.90
2019-06-27T05:38:08.361Z,99.90
2019-06-27T05:40:37.118Z,99.90
2019-06-27T05:43:05.876Z,99.90
2019-06-27T05:45:34.587Z,99.90
2019-06-27T05:48:03.341Z,99.90
2019-06-27T05:50:32.415Z,99.90
2019-06-27T05:53:01.356Z,99.90
2019-06-27T05:55:30.496Z,99.90
2019-06-27T05:57:59.270Z,99.90
2019-06-27T06:00:29.659Z,99.90
2019-06-27T06:02:58.901Z,99.90
2019-06-27T06:05:27.684Z,99.90
2019-06-27T06:07:56.373Z,99.90
2019-06-27T06:10:25.077Z,99.90
2019-06-27T06:12:54.127Z,99.90
2019-06-27T06:15:22.800Z,99.90
2019-06-27T06:17:51.552Z,99.90
2019-06-27T06:20:20.239Z,99.90
2019-06-27T06:22:48.992Z,99.90
2019-06-27T06:25:18.102Z,99.90
2019-06-27T06:27:46.965Z,99.90
2019-06-27T06:30:16.202Z,99.90
2019-06-27T06:32:45.800Z,99.90
2019-06-27T06:35:14.860Z,99.90
2019-06-27T06:37:43.613Z,99.90
2019-06-27T06:40:12.289Z,99.90
2019-06-27T06:42:41.043Z,99.90
2019-06-27T06:45:09.798Z,99.90
2019-06-27T06:47:39.230Z,99.90
2019-06-27T06:50:07.988Z,99.90
2019-06-27T06:52:36.985Z,99.90
2019-06-27T06:55:05.864Z,99.90
2019-06-27T06:57:34.877Z,99.90
2019-06-27T07:00:03.691Z,99.90
2019-06-27T07:02:32.469Z,99.90
2019-06-27T07:05:01.550Z,99.90
2019-06-27T07:07:30.352Z,99.90
2019-06-27T07:09:59.301Z,99.90
2019-06-27T07:12:28.989Z,99.90
2019-06-27T07:14:58.174Z,99.90
2019-06-27T07:17:26.974Z,99.90
2019-06-27T07:19:57.593Z,99.90
2019-06-27T07:22:26.438Z,99.90
2019-06-27T07:24:55.202Z,99.90
2019-06-27T07:27:24.335Z,99.90
2019-06-27T07:29:53.448Z,99.90
2019-06-27T07:32:23.846Z,99.90
2019-06-27T07:34:53.047Z,99.90
2019-06-27T07:37:21.783Z,99.90
2019-06-27T07:39:53.973Z,99.90
2019-06-27T07:42:23.352Z,99.90
2019-06-27T07:44:52.589Z,99.90
2019-06-27T07:47:21.352Z,99.90
2019-06-27T07:49:50.587Z,99.90
2019-06-27T07:52:20.934Z,99.90
2019-06-27T07:54:51.499Z,99.90
2019-06-27T07:57:20.337Z,99.90
2019-06-27T07:59:49.840Z,99.90
2019-06-27T08:02:21.056Z,99.90
2019-06-27T08:04:51.236Z,99.90
2019-06-27T08:07:21.343Z,99.90
2019-06-27T08:09:50.269Z,99.90
2019-06-27T08:12:19.309Z,99.90
2019-06-27T08:14:47.981Z,99.90
2019-06-27T08:17:16.739Z,99.90
2019-06-27T08:19:45.422Z,99.90
2019-06-27T08:22:14.475Z,99.90
2019-06-27T08:24:43.265Z,99.90
2019-06-27T08:27:12.238Z,99.90
2019-06-27T08:29:40.969Z,99.90
2019-06-27T08:32:09.915Z,99.90
2019-06-27T08:34:38.594Z,99.90
2019-06-27T08:37:07.269Z,99.90
2019-06-27T08:39:35.968Z,99.90
2019-06-27T08:42:04.648Z,99.90
2019-06-27T08:44:33.757Z,99.90
2019-06-27T08:47:02.509Z,99.90
2019-06-27T08:49:31.261Z,99.90
2019-06-27T08:52:00.239Z,99.90
2019-06-27T08:54:28.917Z,99.90
2019-06-27T08:56:58.419Z,99.90
2019-06-27T08:59:28.128Z,99.90
2019-06-27T09:02:07.802Z,99.90
2019-06-27T09:04:27.250Z,99.90
2019-06-27T09:06:56.007Z,99.90
2019-06-27T09:09:24.692Z,99.90
2019-06-27T09:11:53.459Z,99.90
2019-06-27T09:14:22.128Z,99.90
2019-06-27T09:16:50.929Z,99.90
2019-06-27T09:19:19.834Z,99.90
2019-06-27T09:21:48.579Z,99.90
2019-06-27T09:24:17.256Z,99.90
2019-06-27T09:26:45.984Z,99.90
2019-06-27T09:29:15.006Z,99.90
2019-06-27T09:31:43.790Z,99.90
2019-06-27T09:34:12.503Z,99.90
2019-06-27T09:36:41.252Z,99.90
2019-06-27T09:39:09.931Z,99.90
2019-06-27T09:41:38.945Z,99.90
2019-06-27T09:44:07.617Z,99.90
2019-06-27T09:46:36.296Z,99.90
2019-06-27T09:49:06.058Z,99.90
2019-06-27T09:51:34.746Z,99.90
2019-06-27T09:54:03.445Z,99.90
2019-06-27T09:56:32.439Z,99.90
2019-06-27T09:59:01.252Z,99.90
2019-06-27T10:01:30.007Z,99.90
2019-06-27T10:03:58.685Z,99.90
2019-06-27T10:06:27.744Z,99.90
2019-06-27T10:08:56.891Z,99.90
2019-06-27T10:11:25.785Z,99.90
2019-06-27T10:13:54.474Z,99.90
2019-06-27T10:16:23.157Z,99.90
2019-06-27T10:18:51.869Z,99.90
2019-06-27T10:21:20.546Z,99.90
2019-06-27T10:23:49.249Z,99.90
2019-06-27T10:26:18.302Z,99.90
2019-06-27T10:28:47.116Z,99.90
2019-06-27T10:31:15.800Z,99.90
2019-06-27T10:33:44.552Z,99.90
2019-06-27T10:36:13.233Z,99.90
2019-06-27T10:38:42.385Z,99.90
2019-06-27T10:41:11.390Z,99.90
2019-06-27T10:43:40.373Z,99.90
2019-06-27T10:46:09.797Z,99.90
2019-06-27T10:48:38.557Z,99.90
2019-06-27T10:51:07.560Z,99.90
2019-06-27T10:53:36.266Z,99.90
2019-06-27T10:56:05.242Z,99.90
2019-06-27T10:58:33.998Z,99.90
2019-06-27T11:01:02.685Z,99.90
2019-06-27T11:03:31.717Z,99.90
2019-06-27T11:06:00.397Z,99.90
2019-06-27T11:08:29.149Z,99.90
2019-06-27T11:10:57.822Z,99.90
2019-06-27T11:13:26.967Z,99.90
2019-06-27T11:15:55.745Z,99.90
2019-06-27T11:18:24.741Z,99.90
2019-06-27T11:20:53.878Z,99.90
2019-06-27T11:23:22.935Z,99.90
2019-06-27T11:25:51.930Z,99.90
2019-06-27T11:28:20.701Z,99.90
2019-06-27T11:30:49.377Z,99.90
2019-06-27T11:33:31.951Z,99.90
2019-06-27T11:35:49.429Z,99.90
2019-06-27T11:38:19.292Z,99.90
2019-06-27T11:40:47.961Z,99.90
2019-06-27T11:43:17.028Z,99.90
2019-06-27T11:45:46.698Z,99.90
2019-06-27T11:48:15.564Z,99.90
2019-06-27T11:50:44.263Z,99.90
2019-06-27T11:53:13.006Z,99.90
2019-06-27T11:55:42.104Z,99.90
2019-06-27T11:58:10.860Z,99.90
2019-06-27T12:00:39.700Z,99.90
2019-06-27T12:03:08.450Z,99.90
2019-06-27T12:05:37.469Z,99.90
2019-06-27T12:08:09.986Z,99.90
2019-06-27T12:10:37.959Z,99.90
2019-06-27T12:13:07.112Z,99.90
2019-06-27T12:15:35.943Z,99.90
2019-06-27T12:18:04.677Z,99.90
2019-06-27T12:20:33.711Z,99.90
2019-06-27T12:23:02.752Z,99.90
2019-06-27T12:25:32.652Z,99.90
2019-06-27T12:28:01.986Z,99.90
2019-06-27T12:30:31.655Z,99.90
2019-06-27T12:33:01.318Z,99.90
2019-06-27T12:35:30.611Z,99.90
2019-06-27T12:37:59.783Z,99.90
2019-06-27T12:40:28.979Z,99.90
2019-06-27T12:42:57.662Z,99.90
2019-06-27T12:45:26.678Z,99.90
2019-06-27T12:47:55.349Z,99.90
2019-06-27T12:50:24.334Z,99.90
2019-06-27T12:52:53.814Z,99.90
2019-06-27T12:55:23.246Z,99.90
2019-06-27T12:57:52.333Z,99.90
2019-06-27T13:00:21.341Z,99.90
2019-06-27T13:02:50.429Z,99.90
2019-06-27T13:05:20.626Z,99.90
2019-06-27T13:07:51.625Z,99.90
2019-06-27T13:10:22.244Z,99.90
2019-06-27T13:12:51.401Z,99.90
2019-06-27T13:15:20.577Z,99.90
2019-06-27T13:17:49.858Z,99.90
2019-06-27T13:20:19.211Z,99.90
2019-06-27T13:22:48.454Z,99.90
2019-06-27T13:25:17.619Z,99.90
2019-06-27T13:27:46.708Z,99.90
2019-06-27T13:30:16.273Z,99.90
2019-06-27T13:32:45.667Z,99.90
2019-06-27T13:35:14.449Z,99.90
2019-06-27T13:37:44.215Z,99.90
2019-06-27T13:40:13.807Z,99.90
2019-06-27T13:42:43.351Z,99.90
2019-06-27T13:45:12.536Z,99.90
2019-06-27T13:47:41.627Z,99.90
2019-06-27T13:50:10.827Z,99.90
2019-06-27T13:52:39.496Z,99.90
2019-06-27T13:55:10.441Z,99.90
2019-06-27T13:57:39.774Z,99.90
2019-06-27T14:00:08.558Z,99.90
2019-06-27T14:02:37.628Z,99.90
2019-06-27T14:05:06.561Z,99.90
2019-06-27T14:07:35.245Z,99.90
2019-06-27T14:10:04.609Z,99.90
2019-06-27T14:12:33.280Z,99.90
2019-06-27T14:15:02.414Z,99.90
2019-06-27T14:17:31.108Z,99.90
2019-06-27T14:20:00.275Z,99.90
2019-06-27T14:22:33.214Z,99.90
2019-06-27T14:25:00.173Z,99.90
2019-06-27T14:27:29.955Z,99.90
2019-06-27T14:29:59.552Z,99.90
2019-06-27T14:32:28.746Z,99.90
2019-06-27T14:35:14.086Z,99.90
2019-06-27T14:37:28.824Z,99.90
2019-06-27T14:39:57.605Z,99.90
2019-06-27T14:42:26.629Z,99.90
2019-06-27T14:44:56.157Z,99.90
2019-06-27T14:47:24.929Z,99.90
2019-06-27T14:49:53.737Z,99.90
2019-06-27T14:52:22.515Z,99.90
2019-06-27T14:54:51.341Z,99.90
2019-06-27T14:57:20.102Z,99.90
2019-06-27T14:59:48.857Z,99.90
2019-06-27T15:02:17.862Z,99.90
2019-06-27T15:04:46.615Z,99.90
2019-06-27T15:07:15.365Z,99.90
2019-06-27T15:09:44.042Z,99.90
2019-06-27T15:12:12.800Z,99.90
2019-06-27T15:14:41.476Z,99.90
2019-06-27T15:17:10.333Z,99.90
2019-06-27T15:19:39.281Z,99.90
2019-06-27T15:22:08.574Z,99.90
2019-06-27T15:24:38.003Z,99.90
2019-06-27T15:27:06.809Z,99.90
2019-06-27T15:29:35.495Z,99.90
2019-06-27T15:32:04.445Z,99.90
2019-06-27T15:34:33.136Z,99.90
2019-06-27T15:37:02.445Z,99.90
2019-06-27T15:39:31.134Z,99.90
2019-06-27T15:42:00.215Z,99.90
2019-06-27T15:44:29.057Z,99.90
2019-06-27T15:47:01.501Z,99.90
2019-06-27T15:49:30.603Z,99.90
2019-06-27T15:51:59.945Z,99.90
2019-06-27T15:54:28.941Z,99.90
2019-06-27T15:56:57.921Z,99.90
2019-06-27T15:59:27.163Z,99.90
2019-06-27T16:01:56.014Z,99.90
2019-06-27T16:04:33.661Z,99.90
2019-06-27T16:06:56.212Z,99.90
2019-06-27T16:09:25.216Z,99.90
2019-06-27T16:11:54.035Z,99.90
2019-06-27T16:14:25.301Z,99.90
2019-06-27T16:16:54.514Z,99.90
2019-06-27T16:19:23.869Z,99.90
2019-06-27T16:21:53.388Z,99.90
2019-06-27T16:24:23.227Z,99.90
2019-06-27T16:26:52.329Z,99.90
2019-06-27T16:29:22.076Z,99.90
2019-06-27T16:31:51.060Z,99.90
2019-06-27T16:34:20.143Z,99.90
2019-06-27T16:36:49.143Z,99.90
2019-06-27T16:39:17.877Z,99.90
2019-06-27T16:41:46.901Z,99.90
2019-06-27T16:44:15.591Z,99.90
2019-06-27T16:46:44.682Z,99.90
2019-06-27T16:49:13.357Z,99.90
2019-06-27T16:51:42.463Z,99.90
2019-06-27T16:54:12.212Z,99.90
2019-06-27T16:56:41.160Z,99.90
2019-06-27T16:59:09.838Z,99.90
2019-06-27T17:01:38.570Z,99.90
2019-06-27T17:04:07.883Z,99.90
2019-06-27T17:06:42.131Z,99.90
2019-06-27T17:09:07.507Z,99.90
2019-06-27T17:11:36.181Z,99.90
2019-06-27T17:14:04.867Z,99.90
2019-06-27T17:16:33.573Z,99.90
2019-06-27T17:19:02.329Z,99.90
2019-06-27T17:21:31.276Z,99.90
2019-06-27T17:23:59.953Z,99.90
2019-06-27T17:26:28.652Z,99.90
2019-06-27T17:28:57.336Z,99.90
2019-06-27T17:31:26.341Z,99.90
2019-06-27T17:33:55.016Z,99.90
2019-06-27T17:36:23.702Z,99.90
2019-06-27T17:38:52.704Z,99.90
2019-06-27T17:41:21.594Z,99.90
2019-06-27T17:43:50.456Z,99.90
2019-06-27T17:46:19.649Z,99.90
2019-06-27T17:48:49.161Z,99.90
2019-06-27T17:51:18.776Z,99.90
2019-06-27T17:53:47.869Z,99.90
2019-06-27T17:56:16.760Z,99.90
2019-06-27T17:58:45.868Z,99.90
2019-06-27T18:01:15.199Z,99.90
2019-06-27T18:03:44.844Z,99.90
2019-06-27T18:06:13.636Z,99.90
2019-06-27T18:08:44.438Z,99.90
2019-06-27T18:11:13.999Z,99.90
2019-06-27T18:13:44.415Z,99.90
2019-06-27T18:16:15.421Z,99.90
2019-06-27T18:18:44.165Z,99.90
2019-06-27T18:21:13.503Z,99.90
2019-06-27T18:23:44.389Z,99.90
2019-06-27T18:26:14.425Z,99.90
2019-06-27T18:28:45.450Z,99.90
2019-06-27T18:31:14.186Z,99.90
2019-06-27T18:33:42.870Z,99.90
2019-06-27T18:36:11.600Z,99.90
2019-06-27T18:38:40.893Z,94.20
2019-06-27T18:41:12.588Z,92.30
2019-06-27T18:43:39.945Z,90.50
2019-06-27T18:46:08.688Z,90.00
2019-06-27T18:48:37.655Z,87.90
2019-06-27T18:51:07.187Z,86.20
2019-06-27T18:53:36.121Z,90.00
2019-06-27T18:56:04.978Z,87.40
2019-06-27T18:58:33.648Z,83.50
2019-06-27T19:01:02.325Z,82.50
2019-06-27T19:03:31.048Z,82.00
2019-06-27T19:05:59.777Z,85.30
2019-06-27T19:08:28.790Z,81.20
2019-06-27T19:10:57.492Z,79.70
2019-06-27T19:13:26.526Z,79.20
2019-06-27T19:15:55.257Z,81.10
2019-06-27T19:18:42.005Z,78.90
2019-06-27T19:21:16.615Z,77.30
2019-06-27T19:24:07.497Z,74.30
2019-06-27T19:26:36.701Z,74.50
2019-06-27T19:29:05.545Z,72.90
2019-06-27T19:31:34.294Z,70.90
2019-06-27T19:34:02.980Z,70.10
2019-06-27T19:36:31.945Z,69.50
2019-06-27T19:39:00.961Z,68.30
2019-06-27T19:41:31.264Z,67.90
2019-06-27T19:43:59.953Z,67.70
2019-06-27T19:46:28.974Z,68.40
2019-06-27T19:48:57.649Z,66.70
2019-06-27T19:51:26.617Z,75.00
2019-06-27T19:53:58.001Z,71.70
2019-06-27T19:56:26.037Z,71.00
2019-06-27T19:58:54.892Z,71.90
2019-06-27T20:01:23.568Z,75.80
2019-06-27T20:03:52.276Z,76.40
2019-06-27T20:06:20.960Z,78.20
2019-06-27T20:08:49.973Z,79.80
2019-06-27T20:11:18.650Z,80.30
2019-06-27T20:13:47.353Z,81.30
2019-06-27T20:16:16.189Z,82.40
2019-06-27T20:18:46.037Z,82.90
2019-06-27T20:21:14.779Z,84.40
2019-06-27T20:23:43.933Z,86.40
2019-06-27T20:26:12.604Z,86.40
2019-06-27T20:28:41.612Z,87.70
2019-06-27T20:31:10.601Z,88.40
2019-06-27T20:33:39.333Z,88.90
2019-06-27T20:36:08.017Z,89.70
2019-06-27T20:38:37.183Z,90.40
2019-06-27T20:41:05.939Z,90.60
2019-06-27T20:43:34.948Z,90.70
2019-06-27T20:46:03.660Z,91.50
2019-06-27T20:48:32.734Z,91.50
2019-06-27T20:51:01.405Z,91.90
2019-06-27T20:53:30.108Z,92.10
2019-06-27T20:55:58.779Z,92.90
2019-06-27T20:58:27.489Z,93.00
2019-06-27T21:00:56.531Z,93.40
2019-06-27T21:03:25.234Z,93.80
2019-06-27T21:05:54.246Z,93.80
2019-06-27T21:08:23.241Z,94.20
2019-06-27T21:10:51.917Z,94.50
2019-06-27T21:13:21.329Z,94.80
2019-06-27T21:15:50.578Z,95.10
2019-06-27T21:18:19.830Z,94.60
2019-06-27T21:20:48.509Z,83.00
2019-06-27T21:23:17.276Z,73.70
2019-06-27T21:25:45.961Z,72.20
2019-06-27T21:28:15.281Z,71.80
2019-06-27T21:30:44.560Z,70.90
2019-06-27T21:33:13.597Z,69.90
2019-06-27T21:35:42.573Z,68.90
2019-06-27T21:38:11.666Z,69.00
2019-06-27T21:40:40.350Z,69.50
2019-06-27T21:43:09.104Z,68.50
2019-06-27T21:45:38.145Z,69.10
2019-06-27T21:48:06.979Z,69.20
2019-06-27T21:50:35.713Z,70.10
2019-06-27T21:53:05.589Z,69.40
2019-06-27T21:55:34.341Z,70.50
2019-06-27T21:58:03.296Z,70.70
2019-06-27T22:00:35.436Z,71.20
2019-06-27T22:03:06.310Z,72.60
2019-06-27T22:05:35.297Z,74.50
2019-06-27T22:08:04.014Z,74.50
2019-06-27T22:10:32.781Z,73.00
2019-06-27T22:13:01.967Z,74.60
2019-06-27T22:15:30.659Z,73.10
2019-06-27T22:18:00.054Z,74.50
2019-06-27T22:20:29.049Z,74.40
2019-06-27T22:22:57.797Z,74.80
2019-06-27T22:25:39.777Z,75.10
2019-06-27T22:27:56.947Z,75.20
2019-06-27T22:30:25.626Z,74.80
2019-06-27T22:32:54.625Z,75.00
2019-06-27T22:35:23.312Z,73.70
2019-06-27T22:38:10.535Z,74.10
2019-06-27T22:40:58.571Z,73.10
2019-06-27T22:43:45.027Z,73.00
2019-06-27T22:46:31.612Z,73.50
2019-06-27T22:48:59.576Z,73.10
2019-06-27T22:51:48.285Z,73.90
2019-06-27T22:54:17.704Z,73.60
2019-06-27T22:56:46.381Z,75.10
2019-06-27T22:59:15.386Z,75.40
2019-06-27T23:01:44.143Z,75.60
2019-06-27T23:04:12.884Z,76.30
2019-06-27T23:06:41.564Z,76.50
2019-06-27T23:09:12.277Z,77.50
2019-06-27T23:11:41.049Z,77.60
2019-06-27T23:14:10.055Z,77.50
2019-06-27T23:16:38.740Z,76.80
2019-06-27T23:19:07.437Z,76.20
2019-06-27T23:21:36.111Z,76.10
2019-06-27T23:24:05.101Z,75.60
2019-06-27T23:26:33.827Z,75.30
2019-06-27T23:29:02.626Z,75.30
2019-06-27T23:31:31.774Z,74.80
2019-06-27T23:34:00.472Z,74.60
2019-06-27T23:36:29.156Z,74.50
2019-06-27T23:38:57.998Z,74.80
2019-06-27T23:41:26.773Z,74.80
2019-06-27T23:43:55.444Z,74.60
2019-06-27T23:46:40.975Z,74.80
2019-06-27T23:49:09.853Z,76.10
2019-06-27T23:51:38.556Z,76.60
2019-06-27T23:54:07.556Z,76.70
2019-06-27T23:56:36.693Z,77.00
2019-06-27T23:59:05.372Z,77.60
